Terminal Aerodrome Forecast
Issued by NWS

Home | Current Version | Previous Version | Text Only | Print | Product List | Glossary On
Versions: 1 2 3 4 5 6 7 8 9 10 11 12 13 14 15 16 17 18 19 20 21 22 23 24 25 26 27 28 29 30 31 32 33 34 35 36 37
000
FTUS43 KDMX 012320
TAFMCW
TAF
KMCW 012320Z 0200/0224 36019G27KT 4SM BLSN FEW011 BKN028 BKN070
     FM020500 33013KT P6SM SCT015
     FM020700 31005KT P6SM SKC
     FM021600 22008KT P6SM BKN100 OVC250=

USA.gov is the U.S. government's official web portal to all federal, state and local government web resources and services.